createdAt,value
2023-01-13T00:00:39.921Z,80.44
2023-01-13T00:01:39.594Z,80.24
2023-01-13T00:02:39.929Z,80.35
2023-01-13T00:03:39.570Z,80.44
2023-01-13T00:04:39.793Z,80.35
2023-01-13T00:05:40.328Z,80.54
2023-01-13T00:06:40.468Z,80.44
2023-01-13T00:07:39.634Z,80.44
2023-01-13T00:08:39.724Z,80.74
2023-01-13T00:09:39.635Z,80.65
2023-01-13T00:10:39.529Z,80.84
2023-01-13T00:11:39.620Z,80.74
2023-01-13T00:12:39.517Z,80.54
2023-01-13T00:13:39.584Z,80.35
2023-01-13T00:14:39.437Z,80.44
2023-01-13T00:15:39.474Z,80.65
2023-01-13T00:16:39.402Z,80.65
2023-01-13T00:17:39.402Z,80.74
2023-01-13T00:18:39.467Z,80.84
2023-01-13T00:19:39.620Z,80.54
2023-01-13T00:20:39.386Z,80.54
2023-01-13T00:21:39.381Z,80.35
2023-01-13T00:22:39.392Z,80.44
2023-01-13T00:23:39.355Z,80.44
2023-01-13T00:24:39.396Z,80.54
2023-01-13T00:25:39.448Z,80.54
2023-01-13T00:26:39.339Z,80.35
2023-01-13T00:27:39.306Z,80.44
2023-01-13T00:28:39.343Z,80.54
2023-01-13T00:29:39.267Z,80.94
2023-01-13T00:30:39.378Z,80.84
2023-01-13T00:31:39.354Z,80.98
2023-01-13T00:32:39.244Z,81.28
2023-01-13T00:33:39.195Z,81.48
2023-01-13T00:34:39.309Z,81.68
2023-01-13T00:35:39.209Z,81.82
2023-01-13T00:36:39.211Z,81.92
2023-01-13T00:37:39.215Z,82.02
2023-01-13T00:38:39.224Z,82.42
2023-01-13T00:39:39.193Z,82.42
2023-01-13T00:40:39.147Z,82.51
2023-01-13T00:41:39.148Z,82.71
2023-01-13T00:42:39.158Z,82.81
2023-01-13T00:43:39.113Z,82.71
2023-01-13T00:44:39.099Z,82.81
2023-01-13T00:45:39.090Z,82.71
2023-01-13T00:46:39.228Z,82.92
2023-01-13T00:47:39.141Z,82.92
2023-01-13T00:48:39.096Z,82.81
2023-01-13T00:49:39.053Z,83.01
2023-01-13T00:50:39.039Z,83.01
2023-01-13T00:51:39.017Z,83.01
2023-01-13T00:52:41.845Z,82.92
2023-01-13T00:53:39.024Z,82.92
2023-01-13T00:54:39.123Z,82.81
2023-01-13T00:55:39.074Z,82.81
2023-01-13T00:56:40.860Z,82.71
2023-01-13T00:57:39.036Z,82.62
2023-01-13T00:58:38.991Z,82.62
2023-01-13T00:59:38.993Z,82.51
2023-01-13T01:00:39.042Z,82.42
2023-01-13T01:01:39.163Z,82.32
2023-01-13T01:02:38.999Z,82.32
2023-01-13T01:03:38.926Z,82.42
2023-01-13T01:04:38.931Z,82.51
2023-01-13T01:05:38.887Z,82.51
2023-01-13T01:06:38.939Z,82.51
2023-01-13T01:07:38.850Z,82.71
2023-01-13T01:08:38.848Z,82.81
2023-01-13T01:09:39.035Z,82.92
2023-01-13T01:10:38.837Z,82.92
2023-01-13T01:11:38.827Z,82.81
2023-01-13T01:12:38.829Z,82.92
2023-01-13T01:13:38.794Z,82.92
2023-01-13T01:14:38.891Z,83.01
2023-01-13T01:15:38.802Z,82.92
2023-01-13T01:16:38.876Z,82.92
2023-01-13T01:17:38.817Z,83.11
2023-01-13T01:18:38.827Z,83.05
2023-01-13T01:19:38.746Z,83.25
2023-01-13T01:20:38.729Z,83.25
2023-01-13T01:21:38.729Z,83.35
2023-01-13T01:22:39.251Z,83.45
2023-01-13T01:23:38.752Z,83.75
2023-01-13T01:24:38.708Z,83.95
2023-01-13T01:25:38.661Z,83.95
2023-01-13T01:26:38.672Z,83.89
2023-01-13T01:27:38.779Z,83.89
2023-01-13T01:28:38.629Z,83.99
2023-01-13T01:29:38.642Z,83.99
2023-01-13T01:30:38.652Z,83.99
2023-01-13T01:31:38.622Z,84.09
2023-01-13T01:32:38.575Z,83.95
2023-01-13T01:33:38.610Z,83.85
2023-01-13T01:34:38.591Z,83.95
2023-01-13T01:35:38.579Z,83.85
2023-01-13T01:36:38.527Z,83.55
2023-01-13T01:37:38.555Z,83.55
2023-01-13T01:38:38.543Z,83.65
2023-01-13T01:39:38.559Z,83.55
2023-01-13T01:40:38.560Z,83.55
2023-01-13T01:41:38.532Z,83.55
2023-01-13T01:42:38.475Z,83.75
2023-01-13T01:43:38.477Z,83.85
2023-01-13T01:44:38.491Z,83.75
2023-01-13T01:45:38.490Z,83.75
2023-01-13T01:46:38.532Z,83.85
2023-01-13T01:47:38.450Z,83.95
2023-01-13T01:48:38.401Z,83.85
2023-01-13T01:49:38.427Z,83.95
2023-01-13T01:50:38.422Z,83.95
2023-01-13T01:51:38.398Z,83.75
2023-01-13T01:52:38.396Z,83.65
2023-01-13T01:53:38.400Z,83.65
2023-01-13T01:54:38.355Z,83.55
2023-01-13T01:55:38.352Z,83.45
2023-01-13T01:56:38.364Z,83.65
2023-01-13T01:57:38.396Z,83.65
2023-01-13T01:58:38.367Z,83.65
2023-01-13T01:59:38.336Z,83.75
2023-01-13T02:00:38.331Z,83.75
2023-01-13T02:01:38.435Z,83.85
2023-01-13T02:02:38.472Z,83.85
2023-01-13T02:03:38.248Z,83.75
2023-01-13T02:04:38.323Z,83.89
2023-01-13T02:05:38.222Z,83.99
2023-01-13T02:06:38.220Z,84.09
2023-01-13T02:07:38.239Z,84.19
2023-01-13T02:08:38.225Z,84.19
2023-01-13T02:09:38.189Z,84.39
2023-01-13T02:10:38.255Z,84.59
2023-01-13T02:11:38.203Z,84.69
2023-01-13T02:12:38.120Z,84.89
2023-01-13T02:13:38.179Z,84.89
2023-01-13T02:14:38.141Z,84.99
2023-01-13T02:15:38.149Z,84.69
2023-01-13T02:16:38.255Z,84.99
2023-01-13T02:17:38.162Z,85.09
2023-01-13T02:18:38.125Z,85.42
2023-01-13T02:19:38.159Z,85.63
2023-01-13T02:20:38.073Z,85.83
2023-01-13T02:21:38.086Z,86.07
2023-01-13T02:22:38.090Z,86.17
2023-01-13T02:23:38.045Z,86.36
2023-01-13T02:24:38.045Z,86.36
2023-01-13T02:25:38.147Z,86.36
2023-01-13T02:26:38.046Z,86.36
2023-01-13T02:27:38.026Z,86.36
2023-01-13T02:28:38.064Z,86.36
2023-01-13T02:29:37.971Z,86.43
2023-01-13T02:30:37.978Z,86.33
2023-01-13T02:31:38.096Z,86.22
2023-01-13T02:32:37.960Z,86.03
2023-01-13T02:33:37.964Z,86.03
2023-01-13T02:34:37.972Z,85.83
2023-01-13T02:35:37.900Z,85.72
2023-01-13T02:36:37.925Z,85.53
2023-01-13T02:37:37.924Z,85.39
2023-01-13T02:38:37.893Z,85.33
2023-01-13T02:39:37.891Z,85.33
2023-01-13T02:40:37.917Z,85.42
2023-01-13T02:41:37.852Z,85.42
2023-01-13T02:42:37.846Z,85.83
2023-01-13T02:43:37.853Z,85.63
2023-01-13T02:44:37.888Z,85.72
2023-01-13T02:45:37.873Z,85.93
2023-01-13T02:46:37.839Z,85.93
2023-01-13T02:47:37.783Z,85.93
2023-01-13T02:48:37.804Z,85.88
2023-01-13T02:49:37.797Z,85.88
2023-01-13T02:50:37.771Z,85.78
2023-01-13T02:51:38.326Z,85.78
2023-01-13T02:52:37.883Z,85.69
2023-01-13T02:53:37.656Z,85.78
2023-01-13T02:54:37.737Z,85.99
2023-01-13T02:55:37.823Z,86.29
2023-01-13T02:56:37.708Z,86.19
2023-01-13T02:57:37.749Z,86.08
2023-01-13T02:58:37.757Z,86.38
2023-01-13T02:59:37.671Z,86.58
2023-01-13T03:00:38.561Z,86.68
2023-01-13T03:01:37.822Z,86.88
2023-01-13T03:02:37.724Z,86.79
2023-01-13T03:03:37.887Z,86.68
2023-01-13T03:04:37.754Z,86.79
2023-01-13T03:05:37.613Z,86.88
2023-01-13T03:06:37.700Z,87.18
2023-01-13T03:07:37.680Z,87.18
2023-01-13T03:08:37.580Z,87.18
2023-01-13T03:09:37.597Z,86.93
2023-01-13T03:10:37.540Z,87.23
2023-01-13T03:11:37.540Z,87.02
2023-01-13T03:12:37.550Z,87.23
2023-01-13T03:13:37.555Z,87.52
2023-01-13T03:14:37.528Z,87.92
2023-01-13T03:15:37.524Z,88.02
2023-01-13T03:16:37.638Z,88.12
2023-01-13T03:17:37.591Z,88.42
2023-01-13T03:18:38.204Z,88.52
2023-01-13T03:19:37.487Z,88.42
2023-01-13T03:20:38.103Z,88.52
2023-01-13T03:21:37.435Z,88.42
2023-01-13T03:22:37.681Z,88.52
2023-01-13T03:23:37.449Z,88.52
2023-01-13T03:24:37.488Z,88.62
2023-01-13T03:25:37.495Z,88.62
2023-01-13T03:26:37.372Z,88.52
2023-01-13T03:27:37.416Z,88.42
2023-01-13T03:28:37.519Z,88.22
2023-01-13T03:29:37.400Z,88.32
2023-01-13T03:30:37.488Z,88.42
2023-01-13T03:31:37.466Z,88.32
2023-01-13T03:32:37.304Z,88.62
2023-01-13T03:33:37.401Z,88.52
2023-01-13T03:34:38.090Z,88.56
2023-01-13T03:35:37.333Z,88.67
2023-01-13T03:36:37.302Z,88.86
2023-01-13T03:37:37.505Z,89.06
2023-01-13T03:38:37.310Z,89.06
2023-01-13T03:39:37.255Z,89.06
2023-01-13T03:40:37.276Z,89.16
2023-01-13T03:41:37.277Z,89.26
2023-01-13T03:42:37.176Z,89.16
2023-01-13T03:43:37.201Z,89.06
2023-01-13T03:44:37.192Z,89.16
2023-01-13T03:45:37.254Z,89.16
2023-01-13T03:46:37.250Z,89.06
2023-01-13T03:47:37.262Z,88.96
2023-01-13T03:48:37.116Z,88.92
2023-01-13T03:49:37.196Z,88.92
2023-01-13T03:50:37.127Z,88.92
2023-01-13T03:51:37.195Z,88.92
2023-01-13T03:52:37.198Z,88.82
2023-01-13T03:53:37.213Z,88.82
2023-01-13T03:54:37.105Z,88.72
2023-01-13T03:55:37.113Z,88.42
2023-01-13T03:56:37.117Z,88.42
2023-01-13T03:57:37.163Z,88.32
2023-01-13T03:58:37.131Z,88.56
2023-01-13T03:59:37.143Z,88.72
2023-01-13T04:00:37.042Z,88.82
2023-01-13T04:01:37.109Z,88.72
2023-01-13T04:02:37.001Z,88.92
2023-01-13T04:03:37.150Z,88.86
2023-01-13T04:04:37.538Z,88.86
2023-01-13T04:05:37.006Z,88.86
2023-01-13T04:06:36.933Z,88.96
2023-01-13T04:07:36.939Z,88.76
2023-01-13T04:08:36.937Z,88.76
2023-01-13T04:09:37.001Z,88.67
2023-01-13T04:10:37.016Z,88.17
2023-01-13T04:11:36.930Z,88.06
2023-01-13T04:12:36.863Z,88.02
2023-01-13T04:13:36.930Z,88.22
2023-01-13T04:14:36.946Z,88.32
2023-01-13T04:15:36.892Z,88.32
2023-01-13T04:16:37.731Z,88.32
2023-01-13T04:17:36.864Z,88.32
2023-01-13T04:18:36.909Z,88.42
2023-01-13T04:19:36.824Z,88.22
2023-01-13T04:20:36.883Z,87.92
2023-01-13T04:21:36.902Z,87.73
2023-01-13T04:22:36.802Z,87.62
2023-01-13T04:23:36.799Z,87.52
2023-01-13T04:24:36.906Z,87.52
2023-01-13T04:25:36.820Z,87.73
2023-01-13T04:26:36.815Z,87.62
2023-01-13T04:27:36.747Z,87.52
2023-01-13T04:28:36.728Z,87.32
2023-01-13T04:29:36.751Z,87.12
2023-01-13T04:30:36.696Z,86.93
2023-01-13T04:31:36.702Z,86.72
2023-01-13T04:32:36.706Z,86.13
2023-01-13T04:33:36.704Z,86.33
2023-01-13T04:34:36.665Z,85.83
2023-01-13T04:35:36.781Z,85.13
2023-01-13T04:36:36.687Z,84.77
2023-01-13T04:37:36.677Z,84.67
2023-01-13T04:38:36.643Z,85.07
2023-01-13T04:39:36.586Z,84.87
2023-01-13T04:40:36.570Z,84.57
2023-01-13T04:41:36.572Z,84.67
2023-01-13T04:42:36.579Z,84.67
2023-01-13T04:43:36.569Z,84.17
2023-01-13T04:44:36.534Z,83.57
2023-01-13T04:45:36.500Z,83.67
2023-01-13T04:46:36.577Z,83.77
2023-01-13T04:47:36.660Z,84.17
2023-01-13T04:48:36.560Z,84.17
2023-01-13T04:49:36.523Z,83.87
2023-01-13T04:50:36.487Z,83.67
2023-01-13T04:51:36.539Z,83.77
2023-01-13T04:52:36.540Z,83.67
2023-01-13T04:53:36.446Z,83.97
2023-01-13T04:54:36.449Z,83.97
2023-01-13T04:55:36.474Z,84.17
2023-01-13T04:56:36.523Z,83.87
2023-01-13T04:57:36.423Z,83.77
2023-01-13T04:58:36.378Z,83.47
2023-01-13T04:59:36.442Z,83.37
2023-01-13T05:00:36.403Z,83.57
2023-01-13T05:01:36.495Z,83.47
2023-01-13T05:02:36.421Z,83.01
2023-01-13T05:03:36.315Z,82.61
2023-01-13T05:04:36.425Z,83.01
2023-01-13T05:05:36.317Z,82.81
2023-01-13T05:06:36.331Z,83.01
2023-01-13T05:07:36.330Z,83.31
2023-01-13T05:08:36.333Z,83.01
2023-01-13T05:09:36.251Z,83.11
2023-01-13T05:10:36.245Z,83.01
2023-01-13T05:11:36.352Z,83.31
2023-01-13T05:12:36.475Z,83.41
2023-01-13T05:13:36.273Z,83.21
2023-01-13T05:14:36.275Z,83.31
2023-01-13T05:15:36.245Z,82.51
2023-01-13T05:16:36.345Z,82.41
2023-01-13T05:17:36.408Z,82.41
2023-01-13T05:18:36.207Z,82.71
2023-01-13T05:19:36.225Z,82.91
2023-01-13T05:20:36.269Z,83.01
2023-01-13T05:21:36.122Z,83.01
2023-01-13T05:22:36.151Z,83.11
2023-01-13T05:23:36.129Z,83.11
2023-01-13T05:24:36.192Z,83.01
2023-01-13T05:25:36.141Z,82.81
2023-01-13T05:26:36.103Z,83.11
2023-01-13T05:27:36.163Z,83.11
2023-01-13T05:28:36.067Z,82.81
2023-01-13T05:29:36.082Z,82.81
2023-01-13T05:30:36.071Z,82.51
2023-01-13T05:31:36.168Z,82.51
2023-01-13T05:32:36.098Z,82.31
2023-01-13T05:33:36.166Z,82.51
2023-01-13T05:34:36.053Z,82.71
2023-01-13T05:35:36.070Z,82.81
2023-01-13T05:36:36.018Z,82.67
2023-01-13T05:37:36.013Z,82.61
2023-01-13T05:38:35.994Z,82.51
2023-01-13T05:39:35.925Z,82.51
2023-01-13T05:40:35.933Z,82.51
2023-01-13T05:41:35.914Z,82.61
2023-01-13T05:42:35.957Z,82.51
2023-01-13T05:43:35.934Z,82.71
2023-01-13T05:44:35.972Z,82.71
2023-01-13T05:45:35.875Z,82.71
2023-01-13T05:46:36.014Z,82.91
2023-01-13T05:47:35.880Z,83.01
2023-01-13T05:48:35.896Z,83.01
2023-01-13T05:49:35.797Z,82.91
2023-01-13T05:50:35.895Z,82.91
2023-01-13T05:51:35.799Z,82.61
2023-01-13T05:52:35.809Z,82.81
2023-01-13T05:53:35.808Z,82.91
2023-01-13T05:54:35.847Z,82.91
2023-01-13T05:55:35.825Z,82.91
2023-01-13T05:56:35.771Z,82.91
2023-01-13T05:57:35.741Z,82.91
2023-01-13T05:58:35.792Z,83.01
2023-01-13T05:59:35.739Z,83.11
2023-01-13T06:00:35.759Z,83.01
2023-01-13T06:01:35.790Z,82.91
2023-01-13T06:02:35.767Z,83.01
2023-01-13T06:03:36.396Z,82.91
2023-01-13T06:04:35.734Z,82.91
2023-01-13T06:05:35.682Z,82.91
2023-01-13T06:06:35.702Z,83.07
2023-01-13T06:07:35.697Z,83.17
2023-01-13T06:08:37.472Z,83.17
2023-01-13T06:09:35.624Z,83.17
2023-01-13T06:10:35.615Z,83.17
2023-01-13T06:11:35.601Z,83.07
2023-01-13T06:12:35.647Z,82.97
2023-01-13T06:13:35.640Z,82.97
2023-01-13T06:14:37.238Z,82.97
2023-01-13T06:15:35.653Z,82.97
2023-01-13T06:16:35.618Z,83.17
2023-01-13T06:17:35.570Z,83.07
2023-01-13T06:18:35.617Z,83.07
2023-01-13T06:19:35.559Z,83.17
2023-01-13T06:20:35.525Z,83.27
2023-01-13T06:21:35.639Z,83.47
2023-01-13T06:22:35.509Z,83.77
2023-01-13T06:23:35.506Z,83.67
2023-01-13T06:24:35.500Z,83.87
2023-01-13T06:25:35.503Z,83.41
2023-01-13T06:26:35.467Z,83.31
2023-01-13T06:27:35.541Z,83.71
2023-01-13T06:28:35.442Z,84.01
2023-01-13T06:29:35.499Z,84.11
2023-01-13T06:30:35.449Z,84.21
2023-01-13T06:31:35.475Z,84.21
2023-01-13T06:32:35.429Z,84.31
2023-01-13T06:33:35.476Z,84.41
2023-01-13T06:34:35.434Z,84.61
2023-01-13T06:35:35.347Z,84.51
2023-01-13T06:36:35.369Z,84.51
2023-01-13T06:37:35.388Z,84.51
2023-01-13T06:38:35.350Z,84.31
2023-01-13T06:39:35.348Z,84.31
2023-01-13T06:40:35.303Z,84.41
2023-01-13T06:41:35.277Z,84.41
2023-01-13T06:42:35.336Z,84.11
2023-01-13T06:43:35.331Z,84.11
2023-01-13T06:44:35.343Z,84.01
2023-01-13T06:45:35.341Z,84.31
2023-01-13T06:46:35.284Z,84.31
2023-01-13T06:47:35.241Z,84.21
2023-01-13T06:48:35.525Z,84.01
2023-01-13T06:49:35.268Z,84.01
2023-01-13T06:50:35.302Z,84.31
2023-01-13T06:51:35.229Z,84.45
2023-01-13T06:52:35.240Z,84.75
2023-01-13T06:53:35.253Z,84.85
2023-01-13T06:54:35.196Z,85.05
2023-01-13T06:55:35.156Z,85.15
2023-01-13T06:56:35.169Z,85.15
2023-01-13T06:57:35.137Z,85.15
2023-01-13T06:58:35.173Z,85.15
2023-01-13T06:59:35.080Z,85.05
2023-01-13T07:00:35.122Z,85.05
2023-01-13T07:01:35.641Z,85.25
2023-01-13T07:02:35.071Z,85.25
2023-01-13T07:03:35.097Z,85.25
2023-01-13T07:04:35.080Z,85.15
2023-01-13T07:05:35.027Z,85.15
2023-01-13T07:06:35.021Z,84.91
2023-01-13T07:07:35.099Z,84.91
2023-01-13T07:08:35.000Z,85.01
2023-01-13T07:09:35.048Z,84.91
2023-01-13T07:10:35.041Z,85.11
2023-01-13T07:11:34.963Z,85.21
2023-01-13T07:12:34.966Z,85.21
2023-01-13T07:13:40.493Z,85.41
2023-01-13T07:14:34.937Z,85.31
2023-01-13T07:15:34.957Z,84.71
2023-01-13T07:16:35.017Z,84.41
2023-01-13T07:17:34.890Z,84.01
2023-01-13T07:18:34.897Z,84.51
2023-01-13T07:19:34.912Z,84.81
2023-01-13T07:20:34.880Z,84.61
2023-01-13T07:21:34.919Z,84.65
2023-01-13T07:22:34.881Z,84.65
2023-01-13T07:23:34.853Z,84.45
2023-01-13T07:24:34.853Z,84.65
2023-01-13T07:25:34.875Z,84.45
2023-01-13T07:26:34.805Z,84.25
2023-01-13T07:27:34.885Z,83.85
2023-01-13T07:28:34.793Z,83.75
2023-01-13T07:29:34.831Z,84.15
2023-01-13T07:30:34.780Z,83.95
2023-01-13T07:31:35.139Z,84.25
2023-01-13T07:32:34.753Z,84.65
2023-01-13T07:33:34.753Z,84.95
2023-01-13T07:34:34.715Z,85.15
2023-01-13T07:35:34.739Z,84.95
2023-01-13T07:36:34.703Z,85.25
2023-01-13T07:37:34.686Z,85.55
2023-01-13T07:38:34.725Z,85.25
2023-01-13T07:39:34.681Z,85.05
2023-01-13T07:40:34.653Z,85.75
2023-01-13T07:41:34.678Z,85.55
2023-01-13T07:42:34.692Z,84.95
2023-01-13T07:43:34.615Z,85.15
2023-01-13T07:44:34.614Z,85.05
2023-01-13T07:45:34.694Z,85.85
2023-01-13T07:46:34.635Z,86.35
2023-01-13T07:47:42.258Z,86.75
2023-01-13T07:48:39.670Z,86.39
2023-01-13T07:49:34.592Z,86.29
2023-01-13T07:50:34.540Z,86.89
2023-01-13T07:51:34.571Z,87.99
2023-01-13T07:52:34.572Z,88.39
2023-01-13T07:53:34.725Z,88.64
2023-01-13T07:54:40.654Z,88.93
2023-01-13T07:55:34.600Z,89.43
2023-01-13T07:56:34.540Z,89.48
2023-01-13T07:57:34.506Z,90.22
2023-01-13T07:58:34.546Z,90.62
2023-01-13T07:59:34.484Z,91.16
2023-01-13T08:00:34.532Z,91.66
2023-01-13T08:01:34.586Z,91.86
2023-01-13T08:02:34.552Z,92.57
2023-01-13T08:03:34.401Z,92.36
2023-01-13T08:04:34.455Z,92.27
2023-01-13T08:05:34.394Z,92.47
2023-01-13T08:06:34.435Z,92.77
2023-01-13T08:07:34.398Z,92.86
2023-01-13T08:08:34.355Z,92.86
2023-01-13T08:09:34.335Z,92.97
2023-01-13T08:10:34.460Z,93.17
2023-01-13T08:11:34.330Z,93.07
2023-01-13T08:12:34.334Z,92.71
2023-01-13T08:13:34.285Z,92.91
2023-01-13T08:14:34.286Z,93.31
2023-01-13T08:15:34.288Z,93.31
2023-01-13T08:16:52.571Z,93.31
2023-01-13T08:17:34.340Z,93.07
2023-01-13T08:18:34.310Z,93.07
2023-01-13T08:19:34.215Z,92.86
2023-01-13T08:20:34.401Z,92.91
2023-01-13T08:21:34.237Z,92.86
2023-01-13T08:22:34.235Z,92.97
2023-01-13T08:23:34.243Z,92.77
2023-01-13T08:24:34.234Z,92.86
2023-01-13T08:25:34.222Z,92.86
2023-01-13T08:26:34.268Z,92.86
2023-01-13T08:27:34.209Z,92.86
2023-01-13T08:28:34.227Z,92.67
2023-01-13T08:29:34.141Z,92.67
2023-01-13T08:30:34.528Z,92.36
2023-01-13T08:31:34.090Z,92.22
2023-01-13T08:32:34.106Z,92.12
2023-01-13T08:33:34.083Z,92.02
2023-01-13T08:34:34.615Z,91.72
2023-01-13T08:35:34.124Z,91.52
2023-01-13T08:36:34.325Z,91.52
2023-01-13T08:37:34.029Z,91.42
2023-01-13T08:38:34.043Z,91.42
2023-01-13T08:39:34.031Z,91.72
2023-01-13T08:40:34.017Z,91.72
2023-01-13T08:41:34.051Z,91.52
2023-01-13T08:42:34.052Z,91.42
2023-01-13T08:43:34.028Z,91.32
2023-01-13T08:44:34.078Z,91.32
2023-01-13T08:45:34.046Z,91.22
2023-01-13T08:46:33.989Z,91.32
2023-01-13T08:47:33.908Z,91.32
2023-01-13T08:48:33.880Z,90.52
2023-01-13T08:49:33.826Z,90.52
2023-01-13T08:50:33.898Z,90.62
2023-01-13T08:52:45.386Z,91.02
2023-01-13T08:53:46.308Z,90.82
2023-01-13T08:54:46.243Z,91.02
2023-01-13T08:55:46.427Z,90.88
2023-01-13T08:56:46.311Z,90.67
2023-01-13T08:57:46.249Z,90.58
2023-01-13T08:58:46.250Z,90.67
2023-01-13T08:59:46.270Z,90.48
2023-01-13T09:00:46.184Z,90.37
2023-01-13T09:01:46.670Z,90.37
2023-01-13T09:02:46.173Z,90.37
2023-01-13T09:03:46.099Z,90.37
2023-01-13T09:04:46.175Z,90.17
2023-01-13T09:05:46.113Z,89.98
2023-01-13T09:06:46.122Z,89.58
2023-01-13T09:08:57.773Z,89.42
2023-01-13T09:09:58.426Z,89.42
2023-01-13T09:10:58.435Z,89.32
2023-01-13T09:11:58.443Z,89.42
2023-01-13T09:12:58.465Z,89.62
2023-01-13T09:13:58.764Z,89.72
2023-01-13T09:14:58.426Z,89.42
2023-01-13T09:15:58.433Z,89.92
2023-01-13T09:16:58.388Z,89.92
2023-01-13T09:17:58.391Z,89.82
2023-01-13T09:18:58.392Z,89.52
2023-01-13T09:19:58.351Z,89.02
2023-01-13T09:20:58.510Z,89.32
2023-01-13T09:21:58.315Z,89.92
2023-01-13T09:22:58.335Z,90.02
2023-01-13T09:23:58.337Z,89.72
2023-01-13T09:24:58.348Z,89.62
2023-01-13T09:25:58.345Z,90.02
2023-01-13T09:26:58.352Z,89.42
2023-01-13T09:27:58.267Z,89.62
2023-01-13T09:28:58.255Z,89.72
2023-01-13T09:29:58.276Z,89.42
2023-01-13T09:30:58.377Z,89.82
2023-01-13T09:31:58.260Z,89.92
2023-01-13T09:32:58.291Z,89.82
2023-01-13T09:33:58.237Z,90.02
2023-01-13T09:34:58.207Z,89.72
2023-01-13T09:35:58.218Z,89.42
2023-01-13T09:36:58.216Z,89.52
2023-01-13T09:37:58.167Z,89.52
2023-01-13T09:40:09.559Z,89.72
2023-01-13T09:41:10.511Z,89.82
2023-01-13T09:42:11.143Z,90.32
2023-01-13T09:43:10.528Z,89.56
2023-01-13T09:44:10.528Z,90.16
2023-01-13T09:46:22.010Z,90.56
2023-01-13T09:47:22.843Z,89.76
2023-01-13T09:48:22.866Z,90.16
2023-01-13T09:49:22.928Z,90.16
2023-01-13T09:50:22.824Z,90.26
2023-01-13T09:51:22.906Z,90.06
2023-01-13T09:52:23.657Z,90.56
2023-01-13T09:53:22.841Z,90.26
2023-01-13T09:54:22.807Z,90.16
2023-01-13T09:55:22.808Z,90.36
2023-01-13T09:56:22.881Z,90.46
2023-01-13T09:57:22.771Z,90.77
2023-01-13T09:58:22.744Z,90.66
2023-01-13T09:59:22.736Z,90.77
2023-01-13T10:00:33.804Z,90.77
2023-01-13T10:01:22.872Z,90.66
2023-01-13T10:02:22.802Z,90.56
2023-01-13T10:03:22.735Z,90.82
2023-01-13T10:04:22.749Z,90.42
2023-01-13T10:05:22.675Z,90.02
2023-01-13T10:06:23.198Z,90.32
2023-01-13T10:07:23.239Z,89.72
2023-01-13T10:08:22.707Z,90.42
2023-01-13T10:09:22.659Z,90.32
2023-01-13T10:10:27.681Z,90.22
2023-01-13T10:11:22.674Z,90.62
2023-01-13T10:12:22.812Z,90.72
2023-01-13T10:13:22.626Z,90.67
2023-01-13T10:14:22.711Z,89.98
2023-01-13T10:15:22.704Z,89.68
2023-01-13T10:16:22.805Z,89.28
2023-01-13T10:17:22.626Z,88.87
2023-01-13T10:18:22.628Z,88.48
2023-01-13T10:19:22.565Z,89.18
2023-01-13T10:20:22.619Z,89.43
2023-01-13T10:21:22.629Z,88.83
2023-01-13T10:22:22.750Z,88.83
2023-01-13T10:23:22.501Z,89.43
2023-01-13T10:24:22.553Z,89.64
2023-01-13T10:25:22.500Z,89.29
2023-01-13T10:26:23.425Z,88.49
2023-01-13T10:27:27.921Z,88.69
2023-01-13T10:28:22.467Z,88.79
2023-01-13T10:29:22.494Z,87.89
2023-01-13T10:30:23.352Z,87.95
2023-01-13T10:31:22.525Z,87.35
2023-01-13T10:32:22.443Z,86.45
2023-01-13T10:33:22.443Z,87.15
2023-01-13T10:34:22.364Z,88.25
2023-01-13T10:35:22.467Z,88.65
2023-01-13T10:36:22.424Z,88.05
2023-01-13T10:37:22.469Z,86.85
2023-01-13T10:38:22.547Z,86.75
2023-01-13T10:39:22.389Z,87.25
2023-01-13T10:40:22.346Z,87.35
2023-01-13T10:41:22.354Z,86.95
2023-01-13T10:42:22.887Z,86.75
2023-01-13T10:43:22.338Z,87.25
2023-01-13T10:44:23.409Z,87.45
2023-01-13T10:45:22.358Z,86.71
2023-01-13T10:46:22.321Z,86.21
2023-01-13T10:47:22.308Z,87.41
2023-01-13T10:48:22.503Z,87.41
2023-01-13T10:49:25.381Z,85.81
2023-01-13T10:50:22.427Z,86.51
2023-01-13T10:51:22.264Z,86.31
2023-01-13T10:52:22.234Z,86.31
2023-01-13T10:53:22.185Z,86.81
2023-01-13T10:54:22.247Z,86.01
2023-01-13T10:55:22.185Z,85.91
2023-01-13T10:57:33.973Z,86.51
2023-01-13T10:58:34.812Z,86.11
2023-01-13T10:59:35.526Z,86.31
2023-01-13T11:00:34.915Z,86.41
2023-01-13T11:01:35.019Z,86.41
2023-01-13T11:02:34.849Z,85.71
2023-01-13T11:03:34.900Z,86.11
2023-01-13T11:04:34.888Z,86.51
2023-01-13T11:05:35.138Z,85.31
2023-01-13T11:06:35.479Z,85.41
2023-01-13T11:07:34.856Z,86.21
2023-01-13T11:08:39.952Z,85.71
2023-01-13T11:09:34.770Z,85.61
2023-01-13T11:10:34.784Z,85.81
2023-01-13T11:11:34.848Z,86.41
2023-01-13T11:12:34.898Z,86.71
2023-01-13T11:13:34.704Z,85.31
2023-01-13T11:14:35.000Z,85.97
2023-01-13T11:15:39.865Z,85.37
2023-01-13T11:16:34.712Z,84.77
2023-01-13T11:17:35.025Z,84.97
2023-01-13T11:18:35.030Z,84.63
2023-01-13T11:19:38.018Z,84.53
2023-01-13T11:20:34.654Z,85.03
2023-01-13T11:21:35.403Z,84.79
2023-01-13T11:22:34.991Z,85.09
2023-01-13T11:23:35.337Z,84.29
2023-01-13T11:24:34.663Z,84.29
2023-01-13T11:25:34.587Z,83.79
2023-01-13T11:26:34.609Z,83.09
2023-01-13T11:27:35.391Z,83.89
2023-01-13T11:28:35.573Z,83.99
2023-01-13T11:29:35.034Z,84.09
2023-01-13T11:30:34.727Z,84.19
2023-01-13T11:31:39.966Z,83.99
2023-01-13T11:32:34.531Z,84.25
2023-01-13T11:33:34.725Z,83.45
2023-01-13T11:34:34.620Z,83.85
2023-01-13T11:35:34.428Z,81.96
2023-01-13T11:36:34.445Z,82.26
2023-01-13T11:37:45.353Z,81.46
2023-01-13T11:38:34.406Z,82.65
2023-01-13T11:39:34.403Z,81.96
2023-01-13T11:40:34.368Z,81.56
2023-01-13T11:41:34.414Z,82.02
2023-01-13T11:42:36.631Z,81.02
2023-01-13T11:43:34.329Z,80.52
2023-01-13T11:44:34.503Z,81.02
2023-01-13T11:45:34.303Z,81.32
2023-01-13T11:46:34.443Z,81.92
2023-01-13T11:47:34.361Z,79.82
2023-01-13T11:48:34.263Z,79.82
2023-01-13T11:49:34.271Z,80.22
2023-01-13T11:50:34.794Z,79.43
2023-01-13T11:51:34.290Z,79.93
2023-01-13T11:52:34.180Z,80.62
2023-01-13T11:53:34.252Z,81.32
2023-01-13T11:54:34.265Z,80.02
2023-01-13T11:55:40.457Z,80.02
2023-01-13T11:56:34.210Z,80.52
2023-01-13T11:57:34.123Z,80.72
2023-01-13T11:58:49.492Z,80.72
2023-01-13T11:59:34.124Z,80.52
2023-01-13T12:00:34.194Z,79.52
2023-01-13T12:02:45.589Z,80.72
2023-01-13T12:03:46.613Z,80.42
2023-01-13T12:04:46.549Z,80.58
2023-01-13T12:05:46.568Z,80.58
2023-01-13T12:06:46.514Z,80.48
2023-01-13T12:07:46.570Z,80.18
2023-01-13T12:08:46.489Z,80.48
2023-01-13T12:09:46.489Z,80.48
2023-01-13T12:10:46.483Z,80.58
2023-01-13T12:11:46.494Z,79.88
2023-01-13T12:12:46.467Z,80.08
2023-01-13T12:13:46.509Z,80.52
2023-01-13T12:14:46.473Z,80.82
2023-01-13T12:15:46.412Z,81.08
2023-01-13T12:16:46.540Z,81.18
2023-01-13T12:17:46.436Z,81.48
2023-01-13T12:18:46.591Z,81.18
2023-01-13T12:20:57.780Z,80.29
2023-01-13T12:21:58.844Z,80.48
2023-01-13T12:22:58.829Z,80.58
2023-01-13T12:23:58.767Z,80.68
2023-01-13T12:24:58.766Z,80.24
2023-01-13T12:25:58.726Z,79.55
2023-01-13T12:26:58.787Z,79.19
2023-01-13T12:27:58.784Z,80.29
2023-01-13T12:28:58.804Z,80.08
2023-01-13T12:29:58.698Z,80.05
2023-01-13T12:32:10.273Z,80.05
2023-01-13T12:33:11.118Z,78.02
2023-01-13T12:34:11.139Z,79.31
2023-01-13T12:35:11.130Z,78.28
2023-01-13T12:36:11.190Z,78.38
2023-01-13T12:37:11.206Z,78.67
2023-01-13T12:38:11.092Z,78.34
2023-01-13T12:39:11.049Z,77.84
2023-01-13T12:40:11.048Z,76.85
2023-01-13T12:41:11.150Z,76.39
2023-01-13T12:42:11.068Z,77.09
2023-01-13T12:43:29.297Z,76.45
2023-01-13T12:44:11.040Z,76.45
2023-01-13T12:46:34.225Z,74.96
2023-01-13T12:47:34.719Z,75.85
2023-01-13T12:48:34.655Z,76.95
2023-01-13T12:49:34.775Z,76.95
2023-01-13T12:50:34.759Z,75.72
2023-01-13T12:52:57.376Z,75.48
2023-01-13T12:53:58.242Z,75.09
2023-01-13T12:54:58.250Z,75.29
2023-01-13T12:55:58.265Z,75.09
2023-01-13T12:56:58.268Z,75.88
2023-01-13T12:59:20.998Z,74.99
2023-01-13T13:00:21.948Z,74.59
2023-01-13T13:01:22.050Z,74.79
2023-01-13T13:02:22.048Z,74.79
2023-01-13T13:03:21.869Z,73.69
2023-01-13T13:04:21.922Z,74.06
2023-01-13T13:05:22.256Z,73.66
2023-01-13T13:06:21.812Z,73.96